createdAt,value
2022-11-26T00:02:30.552Z,102626.87
2022-11-26T00:05:00.972Z,102634.77
2022-11-26T00:07:31.591Z,102636.78
2022-11-26T00:10:02.221Z,102640.30
2022-11-26T00:12:34.234Z,102642.00
2022-11-26T00:15:18.076Z,102641.56
2022-11-26T00:17:47.828Z,102649.50
2022-11-26T00:20:18.516Z,102652.01
2022-11-26T00:22:52.906Z,102652.11
2022-11-26T00:25:23.977Z,102653.31
2022-11-26T00:27:55.756Z,102650.36
2022-11-26T00:30:29.050Z,102648.04
2022-11-26T00:32:59.510Z,102646.29
2022-11-26T00:35:28.758Z,102642.00
2022-11-26T00:37:59.134Z,102651.20
2022-11-26T00:40:29.791Z,102654.18
2022-11-26T00:43:01.794Z,102658.86
2022-11-26T00:45:31.941Z,102655.17
2022-11-26T00:48:01.962Z,102659.86
2022-11-26T00:50:39.679Z,102668.69
2022-11-26T00:53:09.188Z,102665.47
2022-11-26T00:55:40.147Z,102668.23
2022-11-26T00:58:12.871Z,102659.38
2022-11-26T01:00:42.188Z,102658.98
2022-11-26T01:03:11.794Z,102661.94
2022-11-26T01:05:41.013Z,102661.99
2022-11-26T01:08:30.149Z,102655.83
2022-11-26T01:11:00.436Z,102645.59
2022-11-26T01:13:30.709Z,102651.41
2022-11-26T01:16:01.788Z,102646.42
2022-11-26T01:18:32.781Z,102651.97
2022-11-26T01:21:02.086Z,102655.94
2022-11-26T01:23:31.599Z,102661.76
2022-11-26T01:26:06.131Z,102664.27
2022-11-26T01:28:32.127Z,102672.11
2022-11-26T01:31:01.426Z,102681.25
2022-11-26T01:33:30.701Z,102686.09
2022-11-26T01:35:59.929Z,102695.73
2022-11-26T01:38:29.218Z,102689.09
2022-11-26T01:41:13.680Z,102685.42
2022-11-26T01:43:44.035Z,102699.25
2022-11-26T01:46:18.807Z,102699.03
2022-11-26T01:48:50.142Z,102690.95
2022-11-26T01:51:25.968Z,102688.54
2022-11-26T01:54:02.241Z,102693.97
2022-11-26T01:56:52.795Z,102696.81
2022-11-26T01:59:29.814Z,102697.45
2022-11-26T02:02:01.147Z,102691.61
2022-11-26T02:04:36.925Z,102699.10
2022-11-26T02:07:06.988Z,102708.88
2022-11-26T02:09:36.898Z,102696.19
2022-11-26T02:12:08.180Z,102692.28
2022-11-26T02:14:42.488Z,102697.41
2022-11-26T02:17:15.298Z,102700.65
2022-11-26T02:19:54.082Z,102693.16
2022-11-26T02:22:52.771Z,102693.79
2022-11-26T02:25:57.285Z,102700.31
2022-11-26T02:28:50.555Z,102695.09
2022-11-26T02:31:38.220Z,102695.38
2022-11-26T02:34:37.464Z,102697.69
2022-11-26T02:37:13.368Z,102703.80
2022-11-26T02:39:42.743Z,102701.72
2022-11-26T02:42:30.577Z,102709.50
2022-11-26T02:45:03.213Z,102714.19
2022-11-26T02:47:34.155Z,102715.82
2022-11-26T02:50:07.215Z,102720.13
2022-11-26T02:52:36.929Z,102717.87
2022-11-26T02:55:07.785Z,102723.05
2022-11-26T02:57:39.260Z,102731.25
2022-11-26T03:00:10.432Z,102728.17
2022-11-26T03:03:04.073Z,102730.64
2022-11-26T03:05:35.961Z,102730.59
2022-11-26T03:08:06.870Z,102729.70
2022-11-26T03:10:36.408Z,102730.69
2022-11-26T03:13:05.658Z,102736.48
2022-11-26T03:15:34.899Z,102736.87
2022-11-26T03:18:04.410Z,102736.87
2022-11-26T03:20:33.617Z,102737.36
2022-11-26T03:23:02.872Z,102742.14
2022-11-26T03:25:32.277Z,102738.70
2022-11-26T03:28:01.678Z,102738.27
2022-11-26T03:30:30.918Z,102741.36
2022-11-26T03:33:00.207Z,102743.54
2022-11-26T03:35:29.628Z,102745.37
2022-11-26T03:37:58.859Z,102742.47
2022-11-26T03:40:28.362Z,102741.16
2022-11-26T03:42:57.599Z,102744.50
2022-11-26T03:45:27.163Z,102738.59
2022-11-26T03:47:56.466Z,102741.69
2022-11-26T03:50:25.860Z,102748.75
2022-11-26T03:52:55.090Z,102755.66
2022-11-26T03:55:24.352Z,102758.07
2022-11-26T03:57:53.853Z,102757.86
2022-11-26T04:00:23.622Z,102754.80
2022-11-26T04:02:53.149Z,102760.81
2022-11-26T04:05:22.723Z,102759.59
2022-11-26T04:07:52.177Z,102763.08
2022-11-26T04:10:21.652Z,102763.85
2022-11-26T04:12:50.962Z,102769.99
2022-11-26T04:15:20.388Z,102764.86
2022-11-26T04:17:49.722Z,102767.56
2022-11-26T04:20:19.084Z,102765.05
2022-11-26T04:22:48.365Z,102769.48
2022-11-26T04:25:17.806Z,102767.78
2022-11-26T04:27:47.073Z,102770.26
2022-11-26T04:30:16.981Z,102765.13
2022-11-26T04:32:46.374Z,102765.61
2022-11-26T04:35:15.676Z,102765.17
2022-11-26T04:37:45.172Z,102764.73
2022-11-26T04:40:14.831Z,102767.25
2022-11-26T04:42:44.255Z,102768.95
2022-11-26T04:45:13.574Z,102766.83
2022-11-26T04:47:43.350Z,102765.09
2022-11-26T04:50:12.915Z,102769.05
2022-11-26T04:52:42.186Z,102762.08
2022-11-26T04:55:11.815Z,102765.13
2022-11-26T04:57:41.126Z,102765.09
2022-11-26T05:00:11.367Z,102773.83
2022-11-26T05:02:40.616Z,102773.00
2022-11-26T05:05:10.312Z,102773.44
2022-11-26T05:07:39.871Z,102783.88
2022-11-26T05:10:10.400Z,102786.87
2022-11-26T05:12:39.762Z,102792.13
2022-11-26T05:15:10.148Z,102791.66
2022-11-26T05:17:39.827Z,102799.87
2022-11-26T05:20:10.539Z,102787.05
2022-11-26T05:22:39.764Z,102791.61
2022-11-26T05:25:09.942Z,102798.39
2022-11-26T05:27:39.429Z,102797.82
2022-11-26T05:30:10.601Z,102800.39
2022-11-26T05:32:39.810Z,102806.13
2022-11-26T05:35:09.614Z,102804.48
2022-11-26T05:37:39.294Z,102813.62
2022-11-26T05:40:09.884Z,102817.23
2022-11-26T05:42:40.098Z,102821.05
2022-11-26T05:45:10.059Z,102818.84
2022-11-26T05:47:39.495Z,102821.45
2022-11-26T05:50:10.263Z,102822.02
2022-11-26T05:52:39.698Z,102822.48
2022-11-26T05:55:10.442Z,102819.45
2022-11-26T05:57:39.809Z,102821.36
2022-11-26T06:00:10.669Z,102826.05
2022-11-26T06:02:43.977Z,102824.15
2022-11-26T06:05:13.339Z,102818.11
2022-11-26T06:07:44.941Z,102820.80
2022-11-26T06:10:14.836Z,102815.09
2022-11-26T06:12:44.056Z,102817.48
2022-11-26T06:15:13.331Z,102819.57
2022-11-26T06:17:42.607Z,102821.23
2022-11-26T06:20:13.076Z,102819.00
2022-11-26T06:22:44.449Z,102823.10
2022-11-26T06:25:15.707Z,102830.84
2022-11-26T06:27:45.102Z,102827.80
2022-11-26T06:30:15.278Z,102825.84
2022-11-26T06:32:44.485Z,102823.97
2022-11-26T06:35:13.794Z,102827.98
2022-11-26T06:37:43.236Z,102822.36
2022-11-26T06:40:16.007Z,102824.23
2022-11-26T06:42:53.486Z,102822.53
2022-11-26T06:45:24.511Z,102823.76
2022-11-26T06:47:53.946Z,102830.28
2022-11-26T06:50:24.589Z,102835.02
2022-11-26T06:52:54.663Z,102833.72
2022-11-26T06:55:24.312Z,102838.42
2022-11-26T06:57:53.797Z,102845.29
2022-11-26T07:00:24.305Z,102852.20
2022-11-26T07:02:53.856Z,102858.65
2022-11-26T07:05:23.283Z,102862.17
2022-11-26T07:07:52.654Z,102860.95
2022-11-26T07:10:23.200Z,102866.48
2022-11-26T07:12:52.458Z,102870.35
2022-11-26T07:15:22.027Z,102867.08
2022-11-26T07:17:51.301Z,102873.05
2022-11-26T07:20:20.625Z,102876.52
2022-11-26T07:22:49.888Z,102867.87
2022-11-26T07:25:19.191Z,102879.57
2022-11-26T07:27:48.431Z,102883.05
2022-11-26T07:30:18.347Z,102882.14
2022-11-26T07:32:47.730Z,102870.78
2022-11-26T07:35:20.193Z,102871.13
2022-11-26T07:37:49.811Z,102872.75
2022-11-26T07:40:19.128Z,102872.62
2022-11-26T07:42:53.093Z,102875.00
2022-11-26T07:45:20.744Z,102873.61
2022-11-26T07:47:50.201Z,102867.34
2022-11-26T07:50:19.479Z,102871.51
2022-11-26T07:52:48.925Z,102876.95
2022-11-26T07:55:18.216Z,102878.20
2022-11-26T07:57:47.697Z,102885.00
2022-11-26T08:00:18.149Z,102886.24
2022-11-26T08:02:47.731Z,102881.81
2022-11-26T08:05:17.397Z,102886.50
2022-11-26T08:07:46.813Z,102886.50
2022-11-26T08:10:16.540Z,102895.51
2022-11-26T08:12:48.341Z,102899.82
2022-11-26T08:15:18.011Z,102905.78
2022-11-26T08:17:47.531Z,102904.56
2022-11-26T08:20:17.058Z,102910.19
2022-11-26T08:22:46.655Z,102903.07
2022-11-26T08:25:16.654Z,102902.41
2022-11-26T08:27:45.886Z,102900.17
2022-11-26T08:30:15.402Z,102897.27
2022-11-26T08:32:44.825Z,102897.94
2022-11-26T08:35:14.273Z,102905.88
2022-11-26T08:37:43.637Z,102907.28
2022-11-26T08:40:14.183Z,102912.31
2022-11-26T08:42:43.644Z,102909.20
2022-11-26T08:45:13.096Z,102905.67
2022-11-26T08:47:42.369Z,102902.17
2022-11-26T08:50:12.321Z,102902.67
2022-11-26T08:52:41.671Z,102914.61
2022-11-26T08:55:11.338Z,102918.48
2022-11-26T08:57:40.668Z,102913.55
2022-11-26T09:00:10.827Z,102910.12
2022-11-26T09:02:40.127Z,102912.27
2022-11-26T09:05:09.556Z,102920.56
2022-11-26T09:07:39.013Z,102917.74
2022-11-26T09:10:08.929Z,102923.58
2022-11-26T09:12:38.704Z,102919.75
2022-11-26T09:15:08.588Z,102922.96
2022-11-26T09:17:37.966Z,102930.45
2022-11-26T09:20:08.369Z,102932.72
2022-11-26T09:22:37.703Z,102941.06
2022-11-26T09:25:07.496Z,102942.09
2022-11-26T09:27:36.984Z,102947.00
2022-11-26T09:30:07.203Z,102945.44
2022-11-26T09:32:37.450Z,102933.62
2022-11-26T09:35:07.669Z,102932.47
2022-11-26T09:37:37.072Z,102935.28
2022-11-26T09:40:07.371Z,102940.00
2022-11-26T09:42:39.821Z,102933.67
2022-11-26T09:45:15.198Z,102936.92
2022-11-26T09:47:47.834Z,102938.86
2022-11-26T09:50:17.951Z,102940.70
2022-11-26T09:52:55.067Z,102941.50
2022-11-26T09:55:36.321Z,102946.87
2022-11-26T09:58:14.987Z,102942.62
2022-11-26T10:00:47.036Z,102944.25
2022-11-26T10:03:20.137Z,102943.56
2022-11-26T10:06:18.211Z,102944.61
2022-11-26T10:09:05.756Z,102940.02
2022-11-26T10:11:40.823Z,102938.77
2022-11-26T10:14:29.866Z,102931.16
2022-11-26T10:17:32.619Z,102937.31
2022-11-26T10:20:26.529Z,102936.08
2022-11-26T10:22:59.231Z,102932.52
2022-11-26T10:25:29.455Z,102927.06
2022-11-26T10:27:59.872Z,102926.81
2022-11-26T10:30:30.967Z,102916.03
2022-11-26T10:33:01.734Z,102921.22
2022-11-26T10:35:31.299Z,102921.95
2022-11-26T10:38:00.703Z,102927.03
2022-11-26T10:40:33.797Z,102926.30
2022-11-26T10:43:12.801Z,102922.39
2022-11-26T10:45:44.462Z,102921.32
2022-11-26T10:48:30.706Z,102915.34
2022-11-26T10:51:14.391Z,102916.21
2022-11-26T10:53:55.484Z,102907.99
2022-11-26T10:56:42.874Z,102909.98
2022-11-26T10:59:27.108Z,102908.67
2022-11-26T11:01:58.633Z,102910.88
2022-11-26T11:04:33.524Z,102911.31
2022-11-26T11:07:06.240Z,102906.58
2022-11-26T11:09:36.602Z,102908.80
2022-11-26T11:12:14.781Z,102909.17
2022-11-26T11:14:45.847Z,102911.70
2022-11-26T11:17:36.098Z,102918.23
2022-11-26T11:20:17.828Z,102907.16
2022-11-26T11:22:47.485Z,102902.84
2022-11-26T11:25:25.574Z,102908.13
2022-11-26T11:27:55.482Z,102903.71
2022-11-26T11:30:30.120Z,102900.53
2022-11-26T11:33:14.816Z,102900.66
2022-11-26T11:35:44.036Z,102892.75
2022-11-26T11:38:24.414Z,102898.05
2022-11-26T11:40:53.934Z,102895.01
2022-11-26T11:43:25.077Z,102888.23
2022-11-26T11:46:03.401Z,102888.44
2022-11-26T11:48:44.148Z,102888.91
2022-11-26T11:51:46.209Z,102893.41
2022-11-26T11:54:27.641Z,102896.58
2022-11-26T11:57:09.005Z,102893.66
2022-11-26T12:00:01.176Z,102882.73
2022-11-26T12:02:50.284Z,102877.70
2022-11-26T12:05:57.261Z,102879.78
2022-11-26T12:08:35.908Z,102888.83
2022-11-26T12:11:43.349Z,102884.11
2022-11-26T12:14:16.046Z,102887.60
2022-11-26T12:16:45.665Z,102889.92
2022-11-26T12:19:27.032Z,102886.92
2022-11-26T12:21:59.404Z,102887.69
2022-11-26T12:24:44.669Z,102897.14
2022-11-26T12:27:19.697Z,102894.55
2022-11-26T12:29:52.708Z,102892.96
2022-11-26T12:32:30.906Z,102889.70
2022-11-26T12:35:03.577Z,102892.22
2022-11-26T12:37:33.041Z,102890.20
2022-11-26T12:40:17.769Z,102899.18
2022-11-26T12:42:52.900Z,102900.50
2022-11-26T12:45:43.600Z,102892.16
2022-11-26T12:48:41.726Z,102889.84
2022-11-26T12:51:25.877Z,102889.93
2022-11-26T12:54:09.763Z,102883.16
2022-11-26T12:56:45.364Z,102875.66
2022-11-26T12:59:23.895Z,102866.83
2022-11-26T13:01:53.545Z,102865.02
2022-11-26T13:04:37.654Z,102864.07
2022-11-26T13:11:08.728Z,102866.16
2022-11-26T13:13:40.884Z,102866.70
2022-11-26T13:16:22.260Z,102858.36
2022-11-26T13:18:54.706Z,102848.48
2022-11-26T13:21:49.350Z,102848.23
2022-11-26T13:24:42.909Z,102846.58
2022-11-26T13:27:33.630Z,102842.63
2022-11-26T13:30:14.709Z,102841.84
2022-11-26T13:33:06.848Z,102838.48
2022-11-26T13:35:41.872Z,102840.42
2022-11-26T13:38:20.434Z,102835.23
2022-11-26T13:41:05.010Z,102841.33
2022-11-26T13:44:04.545Z,102834.13
2022-11-26T13:46:45.159Z,102826.30
2022-11-26T13:49:17.628Z,102823.91
2022-11-26T13:51:58.874Z,102822.77
2022-11-26T13:54:43.335Z,102819.26
2022-11-26T13:57:15.724Z,102814.97
2022-11-26T13:59:52.662Z,102810.81
2022-11-26T14:02:37.487Z,102800.72
2022-11-26T14:05:09.784Z,102804.30
2022-11-26T14:07:39.437Z,102800.55
2022-11-26T14:10:37.744Z,102797.55
2022-11-26T14:13:11.593Z,102796.06
2022-11-26T14:15:47.158Z,102793.05
2022-11-26T14:18:18.177Z,102797.13
2022-11-26T14:21:04.029Z,102796.02
2022-11-26T14:23:46.448Z,102794.31
2022-11-26T14:26:30.513Z,102805.47
2022-11-26T14:29:11.950Z,102795.92
2022-11-26T14:31:51.325Z,102798.30
2022-11-26T14:34:39.372Z,102796.95
2022-11-26T14:37:17.456Z,102794.86
2022-11-26T14:39:46.840Z,102798.44
2022-11-26T14:42:17.489Z,102799.22
2022-11-26T14:44:46.678Z,102796.92
2022-11-26T14:47:21.088Z,102808.87
2022-11-26T14:49:56.685Z,102806.62
2022-11-26T14:52:34.642Z,102805.18
2022-11-26T14:55:23.934Z,102809.17
2022-11-26T14:58:06.119Z,102810.79
2022-11-26T15:00:33.754Z,102810.74
2022-11-26T15:03:05.827Z,102804.56
2022-11-26T15:05:42.017Z,102808.30
2022-11-26T15:08:20.244Z,102804.30
2022-11-26T15:10:52.619Z,102800.50
2022-11-26T15:13:31.051Z,102800.81
2022-11-26T15:16:01.959Z,102802.92
2022-11-26T15:18:32.809Z,102797.81
2022-11-26T15:21:03.171Z,102801.59
2022-11-26T15:23:37.480Z,102794.06
2022-11-26T15:26:07.585Z,102798.48
2022-11-26T15:28:41.083Z,102794.77
2022-11-26T15:31:10.919Z,102785.56
2022-11-26T15:33:41.271Z,102796.17
2022-11-26T15:36:17.112Z,102799.79
2022-11-26T15:39:03.353Z,102801.81
2022-11-26T15:41:33.687Z,102797.13
2022-11-26T15:44:04.145Z,102801.86
2022-11-26T15:46:35.816Z,102803.14
2022-11-26T15:49:08.323Z,102804.98
2022-11-26T15:51:41.320Z,102792.66
2022-11-26T15:54:38.380Z,102792.88
2022-11-26T15:57:06.545Z,102805.38
2022-11-26T15:59:35.716Z,102813.56
2022-11-26T16:02:17.112Z,102809.42
2022-11-26T16:04:51.446Z,102808.81
2022-11-26T16:07:23.997Z,102809.12
2022-11-26T16:09:55.777Z,102807.35
2022-11-26T16:12:30.736Z,102807.95
2022-11-26T16:15:15.968Z,102814.73
2022-11-26T16:17:43.492Z,102811.08
2022-11-26T16:20:24.325Z,102803.72
2022-11-26T16:23:01.152Z,102811.09
2022-11-26T16:25:33.433Z,102812.40
2022-11-26T16:28:12.055Z,102818.73
2022-11-26T16:30:44.548Z,102810.47
2022-11-26T16:33:14.155Z,102816.77
2022-11-26T16:35:45.657Z,102809.47
2022-11-26T16:38:22.651Z,102805.73
2022-11-26T16:40:52.467Z,102798.80
2022-11-26T16:43:21.808Z,102800.11
2022-11-26T16:45:53.992Z,102794.68
2022-11-26T16:48:26.877Z,102801.83
2022-11-26T16:50:57.457Z,102799.72
2022-11-26T16:53:26.979Z,102792.37
2022-11-26T16:55:56.567Z,102799.72
2022-11-26T16:58:37.620Z,102788.63
2022-11-26T17:01:07.134Z,102796.58
2022-11-26T17:03:36.579Z,102791.22
2022-11-26T17:06:15.024Z,102791.53
2022-11-26T17:08:49.478Z,102796.02
2022-11-26T17:11:15.321Z,102789.11
2022-11-26T17:13:44.561Z,102786.04
2022-11-26T17:16:19.144Z,102787.80
2022-11-26T17:18:49.331Z,102777.57
2022-11-26T17:21:18.704Z,102781.51
2022-11-26T17:23:48.031Z,102771.52
2022-11-26T17:26:24.353Z,102779.08
2022-11-26T17:28:53.745Z,102779.88
2022-11-26T17:31:23.163Z,102774.11
2022-11-26T17:33:53.471Z,102768.27
2022-11-26T17:36:24.000Z,102767.88
2022-11-26T17:38:53.708Z,102760.01
2022-11-26T17:41:23.067Z,102761.91
2022-11-26T17:43:52.545Z,102752.92
2022-11-26T17:46:23.064Z,102753.30
2022-11-26T17:48:57.021Z,102748.86
2022-11-26T17:51:23.657Z,102743.07
2022-11-26T17:53:53.294Z,102743.27
2022-11-26T17:56:24.580Z,102747.78
2022-11-26T17:58:54.327Z,102748.27
2022-11-26T18:01:23.980Z,102744.78
2022-11-26T18:03:53.575Z,102743.92
2022-11-26T18:06:37.419Z,102730.03
2022-11-26T18:09:06.769Z,102734.17
2022-11-26T18:11:48.003Z,102737.21
2022-11-26T18:14:18.222Z,102735.14
2022-11-26T18:16:47.783Z,102738.14
2022-11-26T18:19:18.770Z,102733.48
2022-11-26T18:21:49.421Z,102741.34
2022-11-26T18:24:18.890Z,102744.38
2022-11-26T18:26:48.140Z,102731.78
2022-11-26T18:29:17.588Z,102727.40
2022-11-26T18:31:46.923Z,102717.55
2022-11-26T18:34:16.172Z,102716.24
2022-11-26T18:36:49.361Z,102709.62
2022-11-26T18:39:16.846Z,102710.33
2022-11-26T18:41:46.096Z,102705.82
2022-11-26T18:44:15.712Z,102700.27
2022-11-26T18:46:44.935Z,102693.84
2022-11-26T18:49:14.360Z,102689.55
2022-11-26T18:51:43.669Z,102688.38
2022-11-26T18:54:15.881Z,102686.27
2022-11-26T18:56:45.552Z,102691.25
2022-11-26T18:59:15.566Z,102699.05
2022-11-26T19:01:45.572Z,102702.66
2022-11-26T19:04:17.569Z,102698.56
2022-11-26T19:06:46.799Z,102695.50
2022-11-26T19:09:18.497Z,102694.37
2022-11-26T19:11:49.075Z,102697.06
2022-11-26T19:14:18.591Z,102700.52
2022-11-26T19:16:50.566Z,102693.83
2022-11-26T19:19:20.493Z,102696.25
2022-11-26T19:21:50.434Z,102702.44
2022-11-26T19:24:19.863Z,102713.40
2022-11-26T19:26:49.122Z,102711.73
2022-11-26T19:29:18.683Z,102719.71
2022-11-26T19:31:48.077Z,102713.52
2022-11-26T19:34:17.869Z,102722.72
2022-11-26T19:36:49.170Z,102720.28
2022-11-26T19:39:19.682Z,102717.22
2022-11-26T19:41:49.170Z,102718.97
2022-11-26T19:44:18.515Z,102719.16
2022-11-26T19:46:48.346Z,102724.51
2022-11-26T19:49:17.728Z,102717.07
2022-11-26T19:51:46.991Z,102723.20
2022-11-26T19:54:16.187Z,102727.12
2022-11-26T19:56:46.844Z,102734.98
2022-11-26T19:59:19.151Z,102744.63
2022-11-26T20:01:48.879Z,102746.77
2022-11-26T20:04:19.775Z,102752.07
2022-11-26T20:06:49.219Z,102756.89
2022-11-26T20:09:18.689Z,102754.72
2022-11-26T20:11:48.082Z,102750.02
2022-11-26T20:14:17.438Z,102752.22
2022-11-26T20:16:47.036Z,102748.28
2022-11-26T20:19:18.144Z,102757.88
2022-11-26T20:21:49.235Z,102752.22
2022-11-26T20:24:19.262Z,102755.31
2022-11-26T20:26:50.388Z,102754.63
2022-11-26T20:29:20.283Z,102753.55
2022-11-26T20:31:52.139Z,102745.63
2022-11-26T20:34:24.113Z,102760.09
2022-11-26T20:36:53.640Z,102758.90
2022-11-26T20:39:24.956Z,102763.27
2022-11-26T20:41:54.419Z,102761.41
2022-11-26T20:44:24.859Z,102764.25
2022-11-26T20:46:55.768Z,102766.00
2022-11-26T20:49:28.432Z,102759.95
2022-11-26T20:51:56.387Z,102757.17
2022-11-26T20:54:26.879Z,102750.91
2022-11-26T20:56:56.170Z,102743.17
2022-11-26T20:59:25.844Z,102739.64
2022-11-26T21:01:55.547Z,102732.20
2022-11-26T21:04:25.075Z,102729.28
2022-11-26T21:06:54.432Z,102729.28
2022-11-26T21:09:24.090Z,102720.34
2022-11-26T21:11:53.462Z,102717.73
2022-11-26T21:14:22.972Z,102698.58
2022-11-26T21:16:52.805Z,102687.81
2022-11-26T21:19:22.214Z,102676.65
2022-11-26T21:21:51.585Z,102670.02
2022-11-26T21:24:21.107Z,102671.89
2022-11-26T21:26:50.423Z,102661.98
2022-11-26T21:29:20.235Z,102654.25
2022-11-26T21:31:49.842Z,102644.23
2022-11-26T21:34:19.295Z,102646.02
2022-11-26T21:36:48.657Z,102647.59
2022-11-26T21:39:18.310Z,102650.39
2022-11-26T21:41:47.693Z,102646.19
2022-11-26T21:44:17.153Z,102640.78
2022-11-26T21:46:46.754Z,102636.97
2022-11-26T21:49:16.316Z,102636.50
2022-11-26T21:51:46.088Z,102645.16
2022-11-26T21:54:16.614Z,102636.86
2022-11-26T21:56:45.835Z,102626.09
2022-11-26T21:59:15.361Z,102621.61
2022-11-26T22:01:45.564Z,102613.52
2022-11-26T22:04:19.630Z,102610.91
2022-11-26T22:06:49.493Z,102605.58
2022-11-26T22:09:19.194Z,102603.68
2022-11-26T22:11:48.445Z,102598.12
2022-11-26T22:14:18.174Z,102593.27
2022-11-26T22:16:49.406Z,102582.56
2022-11-26T22:19:18.731Z,102580.55
2022-11-26T22:21:48.534Z,102577.93
2022-11-26T22:24:20.381Z,102582.56
2022-11-26T22:26:49.799Z,102573.41
2022-11-26T22:29:20.077Z,102579.95
2022-11-26T22:31:50.562Z,102582.50
2022-11-26T22:34:25.975Z,102575.64
2022-11-26T22:36:55.367Z,102577.06
2022-11-26T22:39:24.723Z,102571.89
2022-11-26T22:41:54.346Z,102565.86
2022-11-26T22:44:23.942Z,102564.48
2022-11-26T22:46:53.320Z,102557.59
2022-11-26T22:49:22.834Z,102560.27
2022-11-26T22:51:52.069Z,102555.33
2022-11-26T22:54:21.701Z,102549.17
2022-11-26T22:56:51.038Z,102547.09
2022-11-26T22:59:20.447Z,102557.65
2022-11-26T23:01:49.757Z,102550.84
2022-11-26T23:04:19.134Z,102549.73
2022-11-26T23:06:48.495Z,102545.11
2022-11-26T23:09:18.218Z,102535.39
2022-11-26T23:11:47.727Z,102537.20
2022-11-26T23:14:17.054Z,102538.74
2022-11-26T23:16:46.434Z,102538.57
2022-11-26T23:19:16.977Z,102541.13
2022-11-26T23:21:47.132Z,102543.48
2022-11-26T23:24:17.328Z,102545.59
2022-11-26T23:26:46.891Z,102540.36
2022-11-26T23:29:16.333Z,102543.53
2022-11-26T23:31:45.982Z,102542.47
2022-11-26T23:34:16.073Z,102532.83
2022-11-26T23:36:45.318Z,102527.48
2022-11-26T23:39:14.985Z,102525.67
2022-11-26T23:41:44.677Z,102526.72
2022-11-26T23:44:13.910Z,102518.45
2022-11-26T23:46:43.261Z,102519.75
2022-11-26T23:49:12.614Z,102523.68
2022-11-26T23:51:41.872Z,102516.48
2022-11-26T23:54:11.089Z,102515.15
2022-11-26T23:56:42.255Z,102514.59
2022-11-26T23:59:12.525Z,102521.87
